Time;durP1;ratioP1;P1;durP2;ratioP2;P2;SDS_P1;SDS_P2;PMS_P1;PMS_P2;Temp;Humidity;BMP_temperature;BMP_pressure;BME280_temperature;BME280_humidity;BME280_pressure;Samples;Min_cycle;Max_cycle;Signal;HPM_P1;HPM_P2
2023/04/05 00:01:55;;;;;;;48.03;9.67;;;15.70;52.20;;;;;;5132291;27;20234;-90
2023/04/05 00:04:22;;;;;;;32.87;8.20;;;15.70;52.10;;;;;;5152941;27;20582;-91
2023/04/05 00:06:52;;;;;;;33.67;9.07;;;15.70;52.10;;;;;;5138959;27;20304;-92
2023/04/05 00:09:20;;;;;;;31.37;8.77;;;15.70;52.20;;;;;;5125126;27;20241;-91
2023/04/05 00:11:47;;;;;;;47.00;9.73;;;15.70;52.20;;;;;;5111417;27;20229;-90
2023/04/05 00:14:15;;;;;;;35.27;8.37;;;15.60;52.10;;;;;;5124772;27;20206;-90
2023/04/05 00:16:42;;;;;;;56.17;10.33;;;15.60;52.10;;;;;;5121688;27;20707;-92
2023/04/05 00:19:11;;;;;;;29.37;7.77;;;15.60;52.10;;;;;;5114969;27;20538;-91
2023/04/05 00:21:39;;;;;;;30.07;8.37;;;15.60;52.00;;;;;;5118126;27;20707;-89
2023/04/05 00:24:14;;;;;;;49.87;9.87;;;15.60;52.00;;;;;;5129622;27;20271;-92
2023/04/05 00:26:43;;;;;;;36.27;8.47;;;15.50;52.00;;;;;;5131182;27;20217;-92
2023/04/05 00:29:13;;;;;;;31.30;8.00;;;15.50;52.00;;;;;;5128826;27;20210;-89
2023/04/05 00:31:39;;;;;;;36.87;8.83;;;15.50;52.00;;;;;;5111455;28;20204;-92
2023/04/05 00:34:07;;;;;;;30.27;8.30;;;15.50;52.00;;;;;;5114139;27;20190;-91
2023/04/05 00:36:36;;;;;;;29.77;8.67;;;15.50;52.00;;;;;;5130991;27;20216;-88
2023/04/05 00:39:03;;;;;;;33.30;8.90;;;15.50;52.00;;;;;;5151026;27;20206;-89
2023/04/05 00:41:30;;;;;;;23.23;7.83;;;15.50;52.00;;;;;;5152219;27;20208;-91
2023/04/05 00:43:59;;;;;;;48.70;9.70;;;15.50;52.00;;;;;;5148962;27;20181;-90
2023/04/05 00:46:28;;;;;;;28.30;8.53;;;15.50;52.00;;;;;;5131542;27;20651;-89
2023/04/05 00:48:55;;;;;;;19.47;7.17;;;15.40;51.90;;;;;;5148678;27;20302;-92
2023/04/05 00:51:23;;;;;;;23.90;7.90;;;15.40;51.90;;;;;;5143098;27;20200;-91
2023/04/05 00:53:52;;;;;;;31.00;9.10;;;15.40;51.90;;;;;;5131694;27;20201;-93
2023/04/05 00:56:21;;;;;;;28.80;8.00;;;15.40;51.90;;;;;;5116007;27;20194;-92
2023/04/05 00:58:50;;;;;;;28.53;7.83;;;15.40;51.90;;;;;;5132955;27;21018;-91
2023/04/05 01:01:21;;;;;;;28.23;8.57;;;15.30;51.80;;;;;;5147612;27;20650;-92
2023/04/05 01:03:53;;;;;;;29.80;8.50;;;15.30;51.80;;;;;;5133752;27;20661;-92
2023/04/05 01:06:36;;;;;;;36.50;9.03;;;15.30;51.80;;;;;;5114626;27;20688;-88
2023/04/05 01:09:12;;;;;;;35.60;9.03;;;15.30;51.80;;;;;;5146367;27;20204;-87
2023/04/05 01:11:40;;;;;;;26.47;7.80;;;15.30;51.80;;;;;;5137624;27;20217;-88
2023/04/05 01:14:07;;;;;;;32.47;8.57;;;15.30;51.80;;;;;;5109283;28;20212;-87
2023/04/05 01:16:33;;;;;;;30.17;8.87;;;15.20;51.80;;;;;;5117889;27;20217;-87
2023/04/05 01:19:00;;;;;;;26.57;8.37;;;15.30;51.80;;;;;;5139762;27;20321;-87
2023/04/05 01:21:57;;;;;;;26.27;8.53;;;15.30;51.80;;;;;;5129071;27;20645;-87
2023/04/05 01:24:37;;;;;;;24.23;8.67;;;15.20;51.70;;;;;;5110870;27;20210;-88
2023/04/05 01:27:10;;;;;;;43.00;9.63;;;15.20;51.70;;;;;;5108850;27;20206;-87
2023/04/05 01:29:51;;;;;;;25.33;8.33;;;15.20;51.80;;;;;;5150870;27;20278;-87
2023/04/05 01:32:47;;;;;;;23.73;8.17;;;15.20;51.70;;;;;;5149527;27;20252;-87
2023/04/05 01:35:21;;;;;;;31.17;8.80;;;15.10;51.60;;;;;;5140490;27;20208;-90
2023/04/05 01:37:55;;;;;;;35.97;9.17;;;15.10;51.70;;;;;;5118603;27;20358;-88
2023/04/05 01:40:23;;;;;;;32.10;10.07;;;15.10;51.70;;;;;;5121145;27;20203;-87
2023/04/05 01:42:50;;;;;;;26.17;8.63;;;15.10;51.70;;;;;;5128658;27;20201;-87
2023/04/05 01:45:18;;;;;;;27.33;8.47;;;15.10;51.70;;;;;;5129770;27;20228;-87
2023/04/05 01:47:45;;;;;;;26.53;8.20;;;15.10;51.70;;;;;;5134292;27;20659;-87
2023/04/05 01:50:12;;;;;;;32.30;8.97;;;15.20;51.80;;;;;;5133459;27;20566;-88
2023/04/05 01:52:39;;;;;;;27.23;9.87;;;15.10;51.70;;;;;;5128441;27;20201;-87
2023/04/05 01:55:06;;;;;;;29.63;8.83;;;15.00;51.60;;;;;;5128050;27;20209;-88
2023/04/05 01:57:33;;;;;;;27.67;8.93;;;15.00;51.60;;;;;;5131232;27;20298;-87
2023/04/05 02:00:00;;;;;;;30.73;9.03;;;15.10;51.70;;;;;;5150004;27;20195;-88
2023/04/05 02:02:29;;;;;;;26.17;8.30;;;15.10;51.70;;;;;;5150110;27;20240;-87
2023/04/05 02:04:56;;;;;;;32.53;8.87;;;14.90;51.50;;;;;;5150657;27;20280;-88
2023/04/05 02:07:24;;;;;;;67.33;12.20;;;14.90;51.50;;;;;;5113947;27;20213;-88
2023/04/05 02:09:51;;;;;;;55.57;11.23;;;14.90;51.50;;;;;;5134689;27;20204;-87
2023/04/05 02:12:18;;;;;;;20.77;8.53;;;14.90;51.50;;;;;;5129715;27;20221;-87
2023/04/05 02:14:45;;;;;;;38.03;9.43;;;14.90;51.50;;;;;;5129536;27;20559;-89
2023/04/05 02:17:11;;;;;;;37.20;9.67;;;14.90;51.50;;;;;;5126863;27;20336;-89
2023/04/05 02:19:45;;;;;;;31.27;9.67;;;14.90;51.50;;;;;;5132454;27;20209;-89
2023/04/05 02:22:12;;;;;;;31.30;9.53;;;14.90;51.50;;;;;;5129630;27;20320;-87
2023/04/05 02:24:39;;;;;;;30.73;8.93;;;14.80;51.40;;;;;;5129441;28;20530;-87
2023/04/05 02:27:07;;;;;;;30.33;9.37;;;14.80;51.40;;;;;;5129522;27;20194;-87
2023/04/05 02:29:34;;;;;;;29.23;9.27;;;14.80;51.40;;;;;;5148819;27;20209;-88
2023/04/05 02:32:00;;;;;;;38.83;9.30;;;14.70;51.30;;;;;;5150410;27;20556;-88
2023/04/05 02:34:27;;;;;;;24.03;8.80;;;14.70;51.40;;;;;;5116174;27;20201;-88
2023/04/05 02:36:56;;;;;;;26.87;8.83;;;14.80;51.40;;;;;;5109196;28;20371;-90
2023/04/05 02:39:22;;;;;;;29.50;9.43;;;14.80;51.40;;;;;;5126705;27;20209;-89
2023/04/05 02:41:49;;;;;;;40.20;9.83;;;14.70;51.30;;;;;;5129318;28;20920;-89
2023/04/05 02:44:16;;;;;;;31.13;9.67;;;14.70;51.30;;;;;;5128249;28;20593;-87
2023/04/05 02:46:43;;;;;;;34.53;9.67;;;14.70;51.40;;;;;;5129495;28;20661;-87
2023/04/05 02:49:10;;;;;;;29.83;9.40;;;14.70;51.30;;;;;;5127840;27;20304;-88
2023/04/05 02:51:37;;;;;;;32.87;9.50;;;14.70;51.30;;;;;;5129144;28;20254;-88
2023/04/05 02:54:06;;;;;;;35.40;9.50;;;14.70;51.30;;;;;;5128590;28;20202;-87
2023/04/05 02:56:33;;;;;;;44.80;10.53;;;14.70;51.30;;;;;;5129373;28;20194;-91
2023/04/05 02:58:59;;;;;;;27.30;8.47;;;14.60;51.30;;;;;;5142795;27;20231;-91
2023/04/05 03:01:27;;;;;;;26.57;9.23;;;14.70;51.30;;;;;;5150694;27;20271;-92
2023/04/05 03:03:54;;;;;;;38.13;10.17;;;14.60;51.30;;;;;;5134087;27;20657;-91
2023/04/05 03:06:21;;;;;;;36.53;9.70;;;14.70;51.30;;;;;;5133301;27;20205;-92
2023/04/05 03:08:48;;;;;;;29.57;9.53;;;14.60;51.30;;;;;;5142475;27;20660;-91
2023/04/05 03:11:16;;;;;;;33.38;9.90;;;14.60;51.30;;;;;;5113168;27;20513;-90
2023/04/05 03:13:43;;;;;;;28.23;9.10;;;14.50;51.20;;;;;;5115762;27;20193;-92
2023/04/05 03:16:11;;;;;;;59.87;12.00;;;14.50;51.20;;;;;;5126152;27;20211;-90
2023/04/05 03:18:38;;;;;;;27.70;9.87;;;14.50;51.20;;;;;;5133696;27;20220;-91
2023/04/05 03:21:05;;;;;;;33.77;9.87;;;14.50;51.20;;;;;;5133780;27;20264;-91
2023/04/05 03:23:32;;;;;;;32.03;9.20;;;14.60;51.30;;;;;;5112378;28;20213;-92
2023/04/05 03:26:00;;;;;;;51.03;11.40;;;14.50;51.20;;;;;;5116192;27;20736;-92
2023/04/05 03:28:28;;;;;;;25.03;8.57;;;14.60;51.30;;;;;;5153729;27;20236;-91
2023/04/05 03:30:56;;;;;;;25.97;9.23;;;14.50;51.20;;;;;;5154093;27;20216;-91
2023/04/05 03:33:22;;;;;;;32.77;9.07;;;14.70;51.30;;;;;;5120483;27;20210;-91
2023/04/05 03:35:49;;;;;;;46.90;11.20;;;14.50;51.20;;;;;;5112414;27;20673;-93
2023/04/05 03:38:19;;;;;;;38.03;10.50;;;14.50;51.20;;;;;;5137985;27;20735;-92
2023/04/05 03:40:46;;;;;;;35.83;9.57;;;14.40;51.20;;;;;;5113031;28;20251;-92
2023/04/05 03:43:13;;;;;;;36.97;10.60;;;14.50;51.20;;;;;;5123549;27;20193;-92
2023/04/05 03:45:41;;;;;;;38.10;10.57;;;14.40;51.10;;;;;;5113785;27;20216;-87
2023/04/05 03:48:08;;;;;;;24.73;9.20;;;14.40;51.10;;;;;;5111540;27;20228;-88
2023/04/05 03:50:35;;;;;;;30.13;10.00;;;14.50;51.20;;;;;;5111474;28;20195;-87
2023/04/05 03:53:02;;;;;;;29.37;9.93;;;14.40;51.10;;;;;;5111684;28;20183;-87
2023/04/05 03:55:29;;;;;;;37.10;10.07;;;14.40;51.10;;;;;;5111273;27;20552;-87
2023/04/05 03:57:56;;;;;;;31.03;9.67;;;14.40;51.10;;;;;;5141174;27;20224;-86
2023/04/05 04:00:23;;;;;;;30.37;10.07;;;14.30;51.00;;;;;;5116919;27;20228;-88
2023/04/05 04:02:52;;;;;;;25.77;10.17;;;14.40;51.10;;;;;;5151051;27;20560;-87
2023/04/05 04:05:19;;;;;;;32.50;10.50;;;14.30;51.00;;;;;;5145429;27;20203;-87
2023/04/05 04:07:49;;;;;;;30.97;9.80;;;14.40;51.10;;;;;;5130474;27;20229;-92
2023/04/05 04:10:17;;;;;;;32.97;10.43;;;14.30;51.00;;;;;;5126718;27;20284;-88
2023/04/05 04:12:44;;;;;;;35.70;10.40;;;14.30;51.10;;;;;;5132800;27;20192;-91
2023/04/05 04:15:12;;;;;;;27.37;10.23;;;14.30;51.00;;;;;;5130404;27;20208;-91
2023/04/05 04:17:39;;;;;;;31.27;10.13;;;14.30;51.00;;;;;;5131052;27;20223;-91
2023/04/05 04:20:09;;;;;;;29.57;11.10;;;14.30;51.00;;;;;;5135020;27;20577;-87
2023/04/05 04:22:39;;;;;;;35.63;10.83;;;14.30;51.00;;;;;;5128788;27;20947;-87
2023/04/05 04:25:09;;;;;;;29.50;10.20;;;14.30;51.00;;;;;;5130364;27;20212;-88
2023/04/05 04:27:39;;;;;;;44.23;11.27;;;14.30;51.00;;;;;;5129523;27;20199;-87
2023/04/05 04:30:09;;;;;;;29.87;10.47;;;14.30;51.00;;;;;;5134534;27;20204;-86
2023/04/05 04:32:53;;;;;;;38.50;12.03;;;14.20;51.00;;;;;;5129134;27;20660;-90
2023/04/05 04:35:24;;;;;;;28.87;9.87;;;14.20;51.00;;;;;;5126074;27;20196;-88
2023/04/05 04:37:54;;;;;;;39.07;10.67;;;14.20;51.00;;;;;;5131867;27;20209;-86
2023/04/05 04:40:21;;;;;;;27.27;10.30;;;14.20;51.00;;;;;;5135322;27;20216;-90
2023/04/05 04:42:49;;;;;;;32.03;10.63;;;14.20;51.00;;;;;;5126980;27;20204;-88
2023/04/05 04:45:18;;;;;;;32.83;11.27;;;14.20;51.50;;;;;;5132815;27;20961;-88
2023/04/05 04:47:46;;;;;;;37.40;11.67;;;14.20;51.00;;;;;;5121916;27;20203;-89
2023/04/05 04:50:14;;;;;;;32.57;10.50;;;14.10;50.90;;;;;;5130735;27;20204;-91
2023/04/05 04:52:43;;;;;;;34.27;10.50;;;14.20;51.00;;;;;;5136414;27;20214;-88
2023/04/05 04:55:12;;;;;;;38.43;10.30;;;14.20;51.00;;;;;;5152055;27;20198;-92
2023/04/05 04:57:40;;;;;;;33.50;11.23;;;14.20;51.00;;;;;;5150808;27;20208;-88
2023/04/05 05:00:12;;;;;;;34.53;10.67;;;14.10;50.90;;;;;;5138435;27;20219;-91
2023/04/05 05:02:39;;;;;;;26.83;9.97;;;14.10;50.90;;;;;;5129383;27;20205;-87
2023/04/05 05:05:08;;;;;;;24.63;9.70;;;14.10;50.90;;;;;;5129641;27;20944;-89
2023/04/05 05:07:36;;;;;;;37.07;11.07;;;14.10;50.90;;;;;;5129944;27;20205;-90
2023/04/05 05:10:06;;;;;;;35.33;10.60;;;14.10;50.90;;;;;;5127989;27;20204;-92
2023/04/05 05:12:34;;;;;;;36.57;10.77;;;14.10;50.90;;;;;;5137710;27;20200;-87
2023/04/05 05:15:01;;;;;;;32.97;10.17;;;14.00;50.80;;;;;;5118642;27;20213;-89
2023/04/05 05:17:28;;;;;;;22.63;9.87;;;14.00;50.80;;;;;;5128643;27;20217;-89
2023/04/05 05:19:55;;;;;;;34.90;10.03;;;14.00;50.80;;;;;;5122274;27;20217;-88
2023/04/05 05:22:22;;;;;;;34.00;11.00;;;14.00;50.80;;;;;;5120002;27;20221;-88
2023/04/05 05:24:49;;;;;;;32.27;10.83;;;14.00;50.80;;;;;;5129429;27;20202;-90
2023/04/05 05:27:17;;;;;;;49.83;11.77;;;14.00;50.80;;;;;;5111445;27;20196;-85
2023/04/05 05:29:44;;;;;;;30.63;9.93;;;13.90;50.70;;;;;;5125360;27;20208;-88
2023/04/05 05:32:14;;;;;;;38.50;10.30;;;14.00;50.80;;;;;;5128164;27;20200;-92
2023/04/05 05:34:43;;;;;;;47.23;12.53;;;14.00;50.80;;;;;;5128827;27;20285;-86
2023/04/05 05:37:11;;;;;;;31.43;10.50;;;13.90;50.70;;;;;;5127126;27;20232;-88
2023/04/05 05:39:38;;;;;;;40.20;10.63;;;14.00;50.80;;;;;;5117488;27;20635;-85
2023/04/05 05:42:06;;;;;;;34.87;10.33;;;13.90;50.70;;;;;;5118391;27;20201;-90
2023/04/05 05:44:34;;;;;;;33.93;11.03;;;13.90;50.70;;;;;;5126955;27;20208;-89
2023/04/05 05:47:01;;;;;;;54.80;12.13;;;13.90;50.70;;;;;;5134882;27;20295;-87
2023/04/05 05:49:28;;;;;;;32.00;11.07;;;13.90;50.70;;;;;;5150692;27;20196;-90
2023/04/05 05:51:55;;;;;;;26.97;10.03;;;13.90;50.70;;;;;;5150886;27;20209;-91
2023/04/05 05:54:22;;;;;;;53.33;11.97;;;13.90;50.70;;;;;;5113375;27;20202;-88
2023/04/05 05:56:51;;;;;;;34.73;10.50;;;13.80;50.70;;;;;;5110419;27;20208;-90
2023/04/05 05:59:18;;;;;;;36.47;11.13;;;13.80;50.70;;;;;;5149466;27;20227;-87
2023/04/05 06:01:46;;;;;;;35.00;10.27;;;13.80;50.70;;;;;;5126736;27;20231;-88
2023/04/05 06:04:13;;;;;;;32.87;10.90;;;13.80;50.70;;;;;;5124125;27;20198;-88
2023/04/05 06:06:41;;;;;;;37.53;11.27;;;13.90;50.80;;;;;;5117015;27;20205;-88
2023/04/05 06:09:08;;;;;;;38.33;11.60;;;13.80;50.70;;;;;;5135418;27;20230;-87
2023/04/05 06:11:36;;;;;;;35.40;11.10;;;13.70;50.60;;;;;;5129683;27;20318;-88
2023/04/05 06:14:03;;;;;;;31.80;10.30;;;13.80;50.70;;;;;;5129440;27;20197;-87
2023/04/05 06:16:30;;;;;;;45.03;11.87;;;13.80;50.70;;;;;;5128753;28;20214;-88
2023/04/05 06:18:59;;;;;;;41.00;11.57;;;13.80;50.70;;;;;;5130583;27;20216;-87
2023/04/05 06:21:26;;;;;;;31.10;12.43;;;13.80;50.70;;;;;;5145438;27;21104;-89
2023/04/05 06:23:53;;;;;;;39.10;12.10;;;13.70;50.60;;;;;;5150293;27;20208;-89
2023/04/05 06:26:25;;;;;;;42.77;12.60;;;13.70;50.60;;;;;;5150000;27;20201;-91
2023/04/05 06:28:53;;;;;;;30.70;11.23;;;13.70;50.60;;;;;;5147260;27;20276;-89
2023/04/05 06:31:31;;;;;;;33.50;11.67;;;13.70;50.70;;;;;;5150437;27;20549;-87
2023/04/05 06:34:00;;;;;;;37.40;12.23;;;13.70;50.60;;;;;;5150420;27;20206;-89
2023/04/05 06:36:26;;;;;;;24.57;11.50;;;13.70;50.60;;;;;;5150435;27;20184;-89
2023/04/05 06:38:53;;;;;;;42.87;11.97;;;13.70;50.70;;;;;;5147404;27;20227;-87
2023/04/05 06:41:20;;;;;;;35.37;11.77;;;13.70;50.70;;;;;;5154181;27;20211;-88
2023/04/05 06:43:47;;;;;;;31.00;11.20;;;13.70;50.70;;;;;;5151236;27;20359;-87
2023/04/05 06:46:14;;;;;;;33.70;11.53;;;13.60;50.60;;;;;;5153415;27;20690;-88
2023/04/05 06:48:43;;;;;;;31.73;12.37;;;13.70;50.70;;;;;;5154362;27;20294;-88
2023/04/05 06:51:11;;;;;;;29.13;10.70;;;13.70;50.70;;;;;;5154310;27;20668;-92
2023/04/05 06:53:38;;;;;;;36.00;11.53;;;13.70;50.70;;;;;;5144052;27;20212;-88
2023/04/05 06:56:05;;;;;;;36.53;12.07;;;13.60;50.60;;;;;;5135151;27;20232;-88
2023/04/05 06:58:32;;;;;;;35.10;11.93;;;13.60;50.60;;;;;;5138933;27;20209;-91
2023/04/05 07:01:00;;;;;;;33.53;11.93;;;13.60;50.60;;;;;;5137818;27;20197;-90
2023/04/05 07:03:27;;;;;;;33.23;11.57;;;13.60;50.60;;;;;;5143393;27;20203;-93
2023/04/05 07:05:57;;;;;;;53.13;13.50;;;13.60;50.60;;;;;;5142077;27;20200;-88
2023/04/05 07:08:27;;;;;;;45.43;12.80;;;13.60;50.60;;;;;;5133580;27;20204;-93
2023/04/05 07:10:54;;;;;;;48.40;13.77;;;13.60;50.60;;;;;;5133300;27;20569;-89
2023/04/05 07:13:23;;;;;;;40.53;11.60;;;13.60;50.60;;;;;;5134744;27;20560;-90
2023/04/05 07:15:50;;;;;;;43.60;12.13;;;13.60;50.60;;;;;;5152828;27;20957;-88
2023/04/05 07:18:17;;;;;;;42.07;12.83;;;13.60;50.60;;;;;;5153028;27;20231;-90
2023/04/05 07:20:46;;;;;;;39.57;12.43;;;13.50;50.50;;;;;;5153088;27;20239;-90
2023/04/05 07:23:16;;;;;;;54.30;13.23;;;13.50;50.50;;;;;;5151535;27;20717;-89
2023/04/05 07:25:45;;;;;;;43.87;12.10;;;13.50;50.50;;;;;;5153330;27;20258;-91
2023/04/05 07:28:12;;;;;;;47.00;14.50;;;13.50;50.50;;;;;;5152980;27;20218;-89
2023/04/05 07:30:39;;;;;;;35.97;11.67;;;13.60;50.60;;;;;;5152804;27;20294;-91
2023/04/05 07:33:05;;;;;;;67.33;15.77;;;13.50;50.50;;;;;;5151251;27;20207;-91
2023/04/05 07:35:32;;;;;;;39.63;12.57;;;13.50;50.50;;;;;;5153353;27;20202;-90
2023/04/05 07:37:59;;;;;;;42.30;12.97;;;13.50;50.50;;;;;;5153388;27;20214;-88
2023/04/05 07:40:26;;;;;;;44.23;13.53;;;13.50;50.50;;;;;;5153039;27;20828;-90
2023/04/05 07:42:55;;;;;;;49.20;13.80;;;13.50;50.60;;;;;;5152979;27;20214;-87
2023/04/05 07:45:22;;;;;;;46.07;13.70;;;13.50;50.60;;;;;;5152425;27;20277;-89
2023/04/05 07:47:49;;;;;;;45.43;12.87;;;13.50;50.60;;;;;;5152961;27;20201;-89
2023/04/05 07:50:16;;;;;;;50.10;13.53;;;13.50;50.60;;;;;;5152476;27;20223;-88
2023/04/05 07:52:43;;;;;;;32.47;12.77;;;13.50;51.20;;;;;;5153054;27;20667;-89
2023/04/05 07:55:10;;;;;;;43.43;13.13;;;13.50;50.60;;;;;;5150411;27;20206;-90
2023/04/05 07:57:37;;;;;;;31.03;12.10;;;13.50;50.60;;;;;;5152792;27;20204;-88
2023/04/05 08:00:11;;;;;;;39.90;13.37;;;13.50;50.60;;;;;;5152548;27;20589;-89
2023/04/05 08:02:38;;;;;;;31.47;12.27;;;13.50;50.60;;;;;;5153249;27;20724;-90
2023/04/05 08:05:06;;;;;;;41.53;12.70;;;13.50;50.70;;;;;;5151605;27;20197;-93
2023/04/05 08:07:33;;;;;;;33.53;13.40;;;13.50;50.70;;;;;;5137706;27;20212;-92
2023/04/05 08:10:00;;;;;;;34.53;12.43;;;13.50;50.80;;;;;;5132516;27;20198;-88
2023/04/05 08:12:27;;;;;;;38.77;12.93;;;13.50;50.80;;;;;;5131972;27;20209;-92
2023/04/05 08:14:54;;;;;;;38.60;12.97;;;13.50;50.80;;;;;;5136152;27;20204;-93
2023/04/05 08:17:25;;;;;;;42.47;13.27;;;13.40;50.80;;;;;;5111182;27;20572;-92
2023/04/05 08:19:52;;;;;;;42.23;13.53;;;13.40;50.80;;;;;;5111500;28;20640;-92
2023/04/05 08:22:19;;;;;;;32.63;12.90;;;13.50;50.80;;;;;;5111143;28;20783;-93
2023/04/05 08:24:46;;;;;;;37.37;13.83;;;13.40;50.80;;;;;;5138293;27;20289;-89
2023/04/05 08:27:13;;;;;;;43.23;13.70;;;13.50;50.90;;;;;;5152074;27;20206;-91
2023/04/05 08:29:40;;;;;;;48.83;14.10;;;13.50;50.90;;;;;;5152309;27;20269;-91
2023/04/05 08:32:07;;;;;;;34.43;12.83;;;13.40;50.80;;;;;;5152391;27;20207;-92
2023/04/05 08:34:36;;;;;;;35.20;13.30;;;13.50;50.90;;;;;;5151409;27;20214;-90
2023/04/05 08:37:03;;;;;;;33.47;12.53;;;13.50;50.90;;;;;;5152319;27;20636;-92
2023/04/05 08:39:29;;;;;;;33.97;12.57;;;13.50;50.90;;;;;;5152121;27;20600;-90
2023/04/05 08:42:06;;;;;;;31.63;13.40;;;13.50;51.00;;;;;;5151930;27;20195;-90
2023/04/05 08:44:36;;;;;;;33.00;12.00;;;13.50;51.00;;;;;;5151005;27;20232;-91
2023/04/05 08:47:03;;;;;;;33.07;12.07;;;13.50;51.00;;;;;;5152084;27;20199;-93
2023/04/05 08:49:30;;;;;;;34.73;12.17;;;13.50;51.10;;;;;;5152417;27;20291;-91
2023/04/05 08:52:01;;;;;;;76.73;15.73;;;13.50;51.00;;;;;;5147454;27;20217;-90
2023/04/05 08:54:28;;;;;;;69.60;14.57;;;13.50;51.10;;;;;;5120639;27;20203;-87
2023/04/05 08:56:58;;;;;;;34.00;12.23;;;13.50;51.10;;;;;;5117368;27;20210;-87
2023/04/05 08:59:26;;;;;;;32.73;12.10;;;13.50;51.10;;;;;;5122319;27;20231;-91
2023/04/05 09:01:54;;;;;;;55.53;14.37;;;13.50;51.10;;;;;;5130768;27;20195;-93
2023/04/05 09:04:23;;;;;;;42.80;12.57;;;13.50;51.20;;;;;;5130267;27;20195;-92
2023/04/05 09:06:54;;;;;;;31.67;11.63;;;13.50;51.20;;;;;;5131166;27;20204;-91
2023/04/05 09:09:24;;;;;;;34.93;11.07;;;13.50;51.20;;;;;;5130767;27;20208;-89
2023/04/05 09:11:51;;;;;;;32.93;11.90;;;13.50;51.20;;;;;;5130073;27;20182;-89
2023/04/05 09:14:20;;;;;;;56.53;13.77;;;13.60;51.30;;;;;;5130640;27;20201;-88
2023/04/05 09:16:47;;;;;;;41.43;12.90;;;13.60;51.40;;;;;;5147193;27;20213;-88
2023/04/05 09:19:14;;;;;;;32.03;11.13;;;13.60;51.30;;;;;;5150683;27;20242;-88
2023/04/05 09:22:00;;;;;;;35.33;11.87;;;13.60;51.40;;;;;;5150734;27;20203;-89
2023/04/05 09:24:35;;;;;;;48.10;12.37;;;13.60;51.40;;;;;;5147112;27;20198;-89
2023/04/05 09:27:07;;;;;;;40.93;12.20;;;13.70;51.50;;;;;;5134340;27;20625;-89
2023/04/05 09:29:35;;;;;;;37.03;11.17;;;13.70;51.50;;;;;;5120155;27;20703;-91
2023/04/05 09:32:03;;;;;;;33.30;11.33;;;13.70;51.50;;;;;;5112961;27;20196;-91
2023/04/05 09:34:32;;;;;;;35.50;11.77;;;13.70;51.40;;;;;;5114233;27;20651;-91
2023/04/05 09:36:59;;;;;;;43.23;11.63;;;13.80;51.60;;;;;;5129235;27;20217;-91
2023/04/05 09:39:32;;;;;;;42.30;11.37;;;13.70;51.50;;;;;;5130657;27;20212;-91
2023/04/05 09:42:10;;;;;;;47.40;11.30;;;13.80;51.60;;;;;;5117486;27;20201;-90
2023/04/05 09:44:51;;;;;;;32.93;10.37;;;13.80;51.60;;;;;;5116950;27;20294;-88
2023/04/05 09:47:19;;;;;;;45.20;11.37;;;13.90;51.70;;;;;;5126829;27;20193;-89
2023/04/05 09:49:46;;;;;;;35.50;10.70;;;13.80;51.60;;;;;;5129980;27;20638;-89
2023/04/05 09:52:23;;;;;;;35.37;10.70;;;13.90;51.70;;;;;;5130477;27;20201;-90
2023/04/05 09:54:55;;;;;;;65.37;12.73;;;13.90;51.70;;;;;;5142421;27;20200;-93
2023/04/05 09:57:25;;;;;;;36.90;10.07;;;13.90;51.70;;;;;;5109894;27;20234;-90
2023/04/05 09:59:52;;;;;;;42.77;10.63;;;14.00;51.70;;;;;;5110243;28;20595;-93
2023/04/05 10:02:19;;;;;;;28.93;8.97;;;14.00;51.60;;;;;;5109932;28;20202;-91
2023/04/05 10:04:47;;;;;;;42.13;9.90;;;14.00;51.70;;;;;;5138297;27;20287;-91
2023/04/05 10:07:19;;;;;;;40.90;8.90;;;14.00;51.70;;;;;;5151438;27;20197;-89
2023/04/05 10:09:48;;;;;;;47.90;10.70;;;14.00;51.70;;;;;;5150513;27;20205;-90
2023/04/05 10:12:26;;;;;;;33.27;9.23;;;14.10;51.80;;;;;;5150654;27;20651;-89
2023/04/05 10:14:53;;;;;;;44.53;9.90;;;14.10;51.80;;;;;;5141733;27;20209;-93
2023/04/05 10:17:28;;;;;;;35.93;9.43;;;14.10;51.80;;;;;;5145398;27;20209;-93
2023/04/05 10:20:09;;;;;;;75.43;13.13;;;14.20;51.90;;;;;;5150885;27;20673;-91
2023/04/05 10:22:42;;;;;;;34.20;9.50;;;14.20;52.00;;;;;;5121475;28;20228;-89
2023/04/05 10:25:31;;;;;;;31.93;9.47;;;14.20;52.00;;;;;;5111855;28;20229;-92
2023/04/05 10:28:04;;;;;;;26.93;8.57;;;14.30;52.00;;;;;;5110747;28;20778;-87
2023/04/05 10:30:36;;;;;;;28.27;8.50;;;14.30;52.00;;;;;;5112423;27;20262;-89
2023/04/05 10:33:13;;;;;;;37.83;9.67;;;14.30;52.00;;;;;;5126798;28;20200;-90
2023/04/05 10:35:55;;;;;;;38.03;10.33;;;14.40;52.10;;;;;;5118824;28;20288;-95
2023/04/05 10:38:25;;;;;;;39.20;9.47;;;14.40;52.10;;;;;;5126981;27;20201;-93
2023/04/05 10:41:02;;;;;;;31.50;9.17;;;14.40;52.00;;;;;;5126859;27;20224;-92
2023/04/05 10:43:34;;;;;;;32.83;9.13;;;14.50;52.10;;;;;;5112012;27;20229;-93
2023/04/05 10:46:04;;;;;;;48.77;11.07;;;14.50;52.10;;;;;;5123020;27;20203;-94
2023/04/05 10:48:46;;;;;;;27.67;8.87;;;14.50;52.10;;;;;;5109577;27;20205;-93
2023/04/05 10:51:15;;;;;;;31.47;9.17;;;14.60;52.20;;;;;;5124179;28;20205;-95
2023/04/05 10:53:42;;;;;;;35.80;9.50;;;14.60;52.10;;;;;;5122806;28;20198;-94
2023/04/05 10:56:11;;;;;;;29.67;8.00;;;14.70;52.20;;;;;;5143466;27;20223;-95
2023/04/05 10:58:41;;;;;;;34.80;9.13;;;14.70;52.20;;;;;;5148269;27;20195;-90
2023/04/05 11:01:09;;;;;;;25.37;8.37;;;14.80;52.30;;;;;;5122362;27;20237;-93
2023/04/05 11:03:46;;;;;;;24.00;8.20;;;14.80;52.30;;;;;;5119181;27;20248;-95
2023/04/05 11:06:21;;;;;;;36.00;8.90;;;14.70;52.20;;;;;;5112174;27;20198;-85
2023/04/05 11:08:49;;;;;;;33.17;8.43;;;14.80;52.30;;;;;;5117623;28;20203;-87
2023/04/05 11:11:19;;;;;;;35.60;8.83;;;14.90;52.30;;;;;;5126281;27;20194;-89
2023/04/05 11:13:52;;;;;;;29.47;8.27;;;14.90;52.30;;;;;;5116710;28;20196;-85
2023/04/05 11:16:19;;;;;;;29.57;8.70;;;15.00;52.50;;;;;;5115792;27;20206;-86
2023/04/05 11:18:47;;;;;;;30.30;8.07;;;15.00;52.40;;;;;;5107860;27;20201;-86
2023/04/05 11:21:22;;;;;;;40.83;9.57;;;15.00;52.40;;;;;;5107672;27;20558;-86
2023/04/05 11:24:05;;;;;;;30.17;8.03;;;15.00;52.40;;;;;;5111254;27;20204;-86
2023/04/05 11:26:34;;;;;;;32.30;8.23;;;15.00;52.40;;;;;;5123989;27;20289;-85
2023/04/05 11:29:02;;;;;;;32.93;9.10;;;15.10;52.50;;;;;;5116909;27;20206;-86
2023/04/05 11:31:29;;;;;;;26.77;8.93;;;15.10;52.50;;;;;;5110688;28;20225;-85
2023/04/05 11:34:08;;;;;;;48.70;10.43;;;15.10;52.50;;;;;;5121401;27;20628;-85
2023/04/05 11:36:44;;;;;;;30.67;8.37;;;15.20;52.60;;;;;;5122468;27;20190;-86
2023/04/05 11:39:25;;;;;;;30.57;7.93;;;15.20;52.50;;;;;;5124499;27;20198;-85
2023/04/05 11:42:00;;;;;;;29.63;8.83;;;15.20;52.60;;;;;;5114379;27;20948;-86
2023/04/05 11:44:30;;;;;;;28.70;7.90;;;15.30;52.60;;;;;;5125726;27;20194;-86
2023/04/05 11:46:57;;;;;;;31.13;8.07;;;15.30;52.60;;;;;;5129689;27;20262;-86
2023/04/05 11:49:25;;;;;;;24.83;7.30;;;15.30;52.60;;;;;;5111420;28;20208;-86
2023/04/05 11:51:53;;;;;;;26.30;7.23;;;15.30;52.60;;;;;;5111060;28;20212;-89
2023/04/05 11:54:33;;;;;;;32.57;7.63;;;15.40;52.70;;;;;;5110944;28;20665;-89
2023/04/05 11:57:00;;;;;;;27.13;7.00;;;15.40;52.70;;;;;;5111270;28;20183;-86
2023/04/05 11:59:35;;;;;;;22.33;7.27;;;15.50;52.70;;;;;;5115734;27;20197;-86
2023/04/05 12:02:05;;;;;;;31.23;8.43;;;15.50;52.80;;;;;;5130462;27;20214;-89
2023/04/05 12:04:31;;;;;;;53.50;9.90;;;15.50;52.70;;;;;;5131868;27;20207;-86
2023/04/05 12:07:19;;;;;;;27.27;7.77;;;15.50;52.70;;;;;;5126804;27;20217;-86
2023/04/05 12:10:08;;;;;;;42.80;8.97;;;15.60;52.90;;;;;;5106562;27;20267;-86
2023/04/05 12:12:37;;;;;;;28.07;7.60;;;15.60;52.90;;;;;;5111309;27;20202;-91
2023/04/05 12:15:08;;;;;;;26.33;7.17;;;15.70;52.90;;;;;;5111060;27;20214;-87
2023/04/05 12:17:42;;;;;;;25.80;7.47;;;15.70;52.90;;;;;;5110712;27;20213;-94
2023/04/05 12:20:10;;;;;;;34.67;8.23;;;15.70;52.90;;;;;;5110504;27;20201;-86
2023/04/05 12:22:38;;;;;;;26.77;7.87;;;15.80;52.90;;;;;;5126971;27;20207;-86
2023/04/05 12:25:06;;;;;;;27.03;7.13;;;15.80;52.90;;;;;;5110199;27;20209;-88
2023/04/05 12:27:33;;;;;;;28.33;7.93;;;15.80;52.90;;;;;;5110609;27;20195;-89
2023/04/05 12:30:08;;;;;;;29.20;7.53;;;15.90;52.90;;;;;;5110891;27;20206;-85
2023/04/05 12:32:41;;;;;;;24.20;6.90;;;15.90;53.00;;;;;;5116001;27;20208;-94
2023/04/05 12:35:11;;;;;;;29.10;7.90;;;15.90;53.00;;;;;;5129524;27;20260;-86
2023/04/05 12:37:40;;;;;;;26.30;6.70;;;16.00;53.10;;;;;;5121308;27;20209;-86
2023/04/05 12:40:08;;;;;;;34.07;7.53;;;15.90;52.90;;;;;;5111392;27;20192;-86
2023/04/05 12:42:35;;;;;;;26.23;7.13;;;16.00;53.00;;;;;;5113814;27;20237;-86